Time;durP1;ratioP1;P1;durP2;ratioP2;P2;SDS_P1;SDS_P2;PMS_P1;PMS_P2;Temp;Humidity;BMP_temperature;BMP_pressure;BME280_temperature;BME280_humidity;BME280_pressure;Samples;Min_cycle;Max_cycle;Signal;HPM_P1;HPM_P2
2023/09/24 00:02:21;;;;;;;1.88;0.90;;;13.90;99.90;;;14.06;100.00;101720.88;5245210;28;20509;-51
2023/09/24 00:04:53;;;;;;;1.77;0.82;;;13.90;99.90;;;14.01;100.00;101727.66;5239945;28;20044;-52
2023/09/24 00:07:25;;;;;;;1.80;1.10;;;13.80;99.90;;;13.96;100.00;101731.88;5239243;28;20059;-51
2023/09/24 00:10:00;;;;;;;1.42;0.80;;;13.80;99.90;;;13.89;100.00;101728.16;5235809;28;20044;-52
2023/09/24 00:12:32;;;;;;;1.30;1.20;;;13.70;99.90;;;13.85;100.00;101732.38;5245953;28;20415;-55
2023/09/24 00:15:06;;;;;;;1.25;0.95;;;13.70;99.90;;;13.80;100.00;101730.41;5255728;28;20391;-52
2023/09/24 00:17:39;;;;;;;1.67;0.70;;;13.60;99.90;;;13.76;100.00;101731.16;5257178;28;20185;-52
2023/09/24 00:20:13;;;;;;;1.85;0.82;;;13.60;99.90;;;13.72;100.00;101734.50;5234536;28;20052;-52
2023/09/24 00:22:46;;;;;;;1.42;0.73;;;13.50;99.90;;;13.69;100.00;101730.03;5239290;28;20519;-53
2023/09/24 00:25:21;;;;;;;1.75;1.17;;;13.50;99.90;;;13.65;100.00;101738.59;5236830;28;20045;-51
2023/09/24 00:27:54;;;;;;;3.22;0.93;;;13.50;99.90;;;13.61;100.00;101736.69;5257507;28;20056;-54
2023/09/24 00:30:27;;;;;;;1.30;0.93;;;13.50;99.90;;;13.58;100.00;101736.59;5232662;28;20073;-52
2023/09/24 00:32:59;;;;;;;1.30;0.93;;;13.40;99.90;;;13.54;100.00;101734.69;5227554;28;20041;-52
2023/09/24 00:35:32;;;;;;;2.15;1.00;;;13.40;99.90;;;13.50;100.00;101740.66;5254406;28;20048;-52
2023/09/24 00:38:05;;;;;;;2.25;0.90;;;13.30;99.90;;;13.48;100.00;101739.69;5249900;28;20037;-52
2023/09/24 00:40:40;;;;;;;1.27;1.02;;;13.30;99.90;;;13.45;100.00;101740.47;5257299;28;20400;-52
2023/09/24 00:43:30;;;;;;;1.95;1.27;;;13.20;99.90;;;13.41;100.00;101737.69;5223095;28;20041;-52
2023/09/24 00:46:06;;;;;;;1.30;0.90;;;13.20;99.90;;;13.38;100.00;101748.94;5236394;28;20048;-52
2023/09/24 00:48:39;;;;;;;1.50;1.10;;;13.20;99.90;;;13.35;100.00;101737.44;5255592;28;20055;-52
2023/09/24 00:51:17;;;;;;;1.70;0.98;;;13.20;99.90;;;13.31;100.00;101741.69;5227123;28;20049;-51
2023/09/24 00:53:51;;;;;;;0.80;0.77;;;13.10;99.90;;;13.28;100.00;101747.69;5230268;28;20068;-51
2023/09/24 00:56:25;;;;;;;2.28;1.20;;;13.10;99.90;;;13.25;100.00;101747.56;5223947;28;20369;-52
2023/09/24 00:58:58;;;;;;;0.90;0.80;;;13.10;99.90;;;13.27;100.00;101751.13;5249213;28;20690;-51
2023/09/24 01:01:30;;;;;;;1.75;1.05;;;13.10;99.90;;;13.28;100.00;101758.16;5257020;28;20079;-52
2023/09/24 01:04:07;;;;;;;1.65;0.82;;;13.10;99.90;;;13.27;100.00;101760.72;5239769;28;20044;-52
2023/09/24 01:06:40;;;;;;;1.30;0.93;;;13.10;99.90;;;13.25;100.00;101757.16;5241539;28;20139;-53
2023/09/24 01:09:12;;;;;;;1.23;1.10;;;13.10;99.90;;;13.22;100.00;101768.38;5240864;28;20207;-51
2023/09/24 01:11:46;;;;;;;2.88;1.10;;;13.10;99.90;;;13.19;100.00;101767.34;5243942;28;20136;-52
2023/09/24 01:14:22;;;;;;;1.58;1.00;;;13.00;99.90;;;13.17;100.00;101766.38;5255315;28;20094;-54
2023/09/24 01:16:55;;;;;;;1.38;1.08;;;13.00;99.90;;;13.12;100.00;101760.09;5245423;28;20538;-53
2023/09/24 01:19:29;;;;;;;2.38;1.00;;;13.00;99.90;;;13.08;100.00;101758.16;5238626;28;20053;-51
2023/09/24 01:22:07;;;;;;;1.73;0.93;;;12.90;99.90;;;13.02;100.00;101762.31;5238114;28;20044;-52
2023/09/24 01:24:39;;;;;;;1.23;0.77;;;12.90;99.90;;;12.99;100.00;101761.31;5252595;28;20073;-53
2023/09/24 01:27:12;;;;;;;1.20;1.10;;;12.90;99.90;;;12.96;100.00;101769.03;5238593;28;20139;-52
2023/09/24 01:29:44;;;;;;;2.40;1.08;;;12.80;99.90;;;12.97;100.00;101771.72;5260621;28;20495;-52
2023/09/24 01:32:16;;;;;;;1.73;0.93;;;12.80;99.90;;;12.99;100.00;101774.41;5256628;28;20048;-53
2023/09/24 01:34:50;;;;;;;1.70;0.90;;;12.80;99.90;;;13.00;100.00;101777.09;5241292;28;20044;-51
2023/09/24 01:37:25;;;;;;;1.75;0.88;;;12.80;99.90;;;12.96;100.00;101779.50;5254726;28;20091;-51
2023/09/24 01:39:57;;;;;;;1.52;1.13;;;12.80;99.90;;;12.92;100.00;101788.97;5240709;28;20540;-53
2023/09/24 01:42:29;;;;;;;1.02;0.80;;;12.80;99.90;;;12.88;100.00;101796.63;5244629;28;20048;-51
2023/09/24 01:45:03;;;;;;;2.05;1.05;;;12.70;99.90;;;12.85;100.00;101804.38;5239087;28;20049;-51
2023/09/24 01:47:37;;;;;;;2.03;1.05;;;12.70;99.90;;;12.81;100.00;101797.19;5254290;28;20040;-51
2023/09/24 01:50:12;;;;;;;2.15;1.00;;;12.70;99.90;;;12.79;100.00;101796.25;5244611;28;20156;-51
2023/09/24 01:52:46;;;;;;;1.67;0.98;;;12.60;99.90;;;12.75;100.00;101796.13;5234862;28;20051;-53
2023/09/24 01:55:21;;;;;;;2.15;0.90;;;12.60;99.90;;;12.72;100.00;101795.09;5237112;28;20041;-53
2023/09/24 01:57:54;;;;;;;1.15;0.98;;;12.60;99.90;;;12.68;100.00;101794.06;5233409;28;20044;-53
2023/09/24 02:00:30;;;;;;;1.10;0.95;;;12.60;99.90;;;12.66;100.00;101794.84;5230861;28;20045;-53
2023/09/24 02:03:06;;;;;;;1.45;0.95;;;12.60;99.90;;;12.63;100.00;101787.75;5254572;28;20053;-52
2023/09/24 02:05:39;;;;;;;2.90;1.10;;;12.50;99.90;;;12.64;100.00;101799.09;5240866;28;20053;-52
2023/09/24 02:08:15;;;;;;;1.63;0.82;;;12.50;99.90;;;12.63;100.00;101794.69;5247383;28;20040;-52
2023/09/24 02:10:48;;;;;;;1.13;0.88;;;12.50;99.90;;;12.60;100.00;101795.47;5252598;28;20051;-53
2023/09/24 02:13:20;;;;;;;1.60;0.93;;;12.50;99.90;;;12.55;100.00;101790.88;5254991;28;20052;-52
2023/09/24 02:15:53;;;;;;;2.03;1.42;;;12.40;99.90;;;12.49;100.00;101789.78;5239990;28;20051;-51
2023/09/24 02:18:32;;;;;;;1.65;0.98;;;12.40;99.90;;;12.44;100.00;101793.03;5238178;28;20117;-53
2023/09/24 02:21:14;;;;;;;1.40;1.05;;;12.30;99.90;;;12.38;100.00;101795.38;5252445;28;20523;-51
2023/09/24 02:23:47;;;;;;;1.73;1.40;;;12.30;99.90;;;12.32;100.00;101796.00;5227921;28;20439;-51
2023/09/24 02:26:21;;;;;;;;;;;12.20;99.90;;;12.28;100.00;101801.03;5233763;28;20044;-51
2023/09/24 02:28:54;;;;;;;1.58;1.35;;;12.20;99.90;;;12.28;100.00;101795.81;5258936;28;20131;-50
2023/09/24 02:31:27;;;;;;;1.73;0.98;;;12.20;99.90;;;12.25;100.00;101795.66;5246609;28;20044;-52
2023/09/24 02:33:59;;;;;;;2.88;1.20;;;12.10;99.90;;;12.25;100.00;101806.13;5250865;28;20043;-51
2023/09/24 02:36:32;;;;;;;2.60;1.15;;;12.10;99.90;;;12.22;100.00;101806.88;5242855;28;20049;-52
2023/09/24 02:39:06;;;;;;;1.75;1.02;;;12.10;99.90;;;12.19;100.00;101797.22;5236673;28;20515;-51
2023/09/24 02:41:40;;;;;;;1.83;0.93;;;12.10;99.90;;;12.16;100.00;101797.06;5228834;28;20060;-51
2023/09/24 02:44:17;;;;;;;1.75;0.90;;;12.10;99.90;;;12.13;100.00;101802.16;5236496;28;20094;-52
2023/09/24 02:46:49;;;;;;;1.33;0.93;;;12.00;99.90;;;12.10;100.00;101796.78;5228869;28;20052;-52
2023/09/24 02:49:22;;;;;;;1.90;1.00;;;12.00;99.90;;;12.06;100.00;101809.63;5238440;28;20071;-51
2023/09/24 02:51:55;;;;;;;1.45;1.13;;;12.00;99.90;;;12.03;100.00;101815.63;5251700;28;20507;-53
2023/09/24 02:54:29;;;;;;;1.20;0.77;;;11.90;99.90;;;12.00;100.00;101810.28;5253038;28;20048;-52
2023/09/24 02:57:03;;;;;;;1.50;0.82;;;11.90;99.90;;;11.97;100.00;101806.63;5239469;28;20052;-52
2023/09/24 02:59:36;;;;;;;3.05;1.20;;;11.90;99.90;;;11.94;100.00;101810.00;5242812;28;20052;-51
2023/09/24 03:02:09;;;;;;;2.05;1.35;;;11.80;99.90;;;11.91;100.00;101809.84;5248615;28;20051;-51
2023/09/24 03:04:42;;;;;;;1.98;0.93;;;11.80;99.90;;;11.88;100.00;101822.78;5232567;28;20051;-52
2023/09/24 03:07:15;;;;;;;1.63;1.20;;;11.80;99.90;;;11.85;100.00;101820.03;5226007;28;20037;-51
2023/09/24 03:09:49;;;;;;;1.25;1.15;;;11.80;99.90;;;11.83;100.00;101817.34;5231189;28;20458;-51
2023/09/24 03:12:24;;;;;;;2.97;1.75;;;11.80;99.90;;;11.81;100.00;101820.72;5230954;28;20445;-55
2023/09/24 03:14:57;;;;;;;1.65;1.05;;;11.70;99.90;;;11.78;100.00;101817.91;5233360;28;20550;-51
2023/09/24 03:17:29;;;;;;;1.73;1.33;;;11.70;99.90;;;11.76;100.00;101819.56;5237081;28;20045;-53
2023/09/24 03:20:14;;;;;;;1.00;0.88;;;11.70;99.90;;;11.73;100.00;101822.03;5248281;28;20045;-51
2023/09/24 03:22:48;;;;;;;2.17;1.08;;;11.60;99.90;;;11.68;100.00;101830.56;5239220;28;20048;-52
2023/09/24 03:25:23;;;;;;;3.17;1.30;;;11.60;99.90;;;11.66;100.00;101833.91;5230311;28;20049;-53
2023/09/24 03:27:57;;;;;;;2.35;1.20;;;11.60;99.90;;;11.63;100.00;101839.91;5256051;28;20045;-53
2023/09/24 03:30:30;;;;;;;2.55;1.10;;;11.60;99.90;;;11.61;100.00;101841.56;5245694;28;20059;-54
2023/09/24 03:33:03;;;;;;;1.70;1.30;;;11.60;99.90;;;11.56;100.00;101845.66;5250266;28;20407;-52
2023/09/24 03:35:36;;;;;;;2.17;1.02;;;11.50;99.90;;;11.55;100.00;101843.88;5239922;28;20110;-52
2023/09/24 03:38:09;;;;;;;2.33;1.02;;;11.50;99.90;;;11.52;100.00;101840.19;5235320;28;20117;-51
2023/09/24 03:40:43;;;;;;;1.77;0.93;;;11.40;99.90;;;11.48;100.00;101854.84;5251005;28;20040;-52
2023/09/24 03:43:15;;;;;;;1.67;1.00;;;11.40;99.90;;;11.44;100.00;101852.91;5250797;28;20056;-51
2023/09/24 03:45:48;;;;;;;2.97;1.20;;;11.40;99.90;;;11.40;100.00;101851.84;5240119;28;20048;-51
2023/09/24 03:48:21;;;;;;;1.50;1.00;;;11.30;99.90;;;11.37;100.00;101849.09;5230940;28;20128;-52
2023/09/24 03:50:55;;;;;;;1.17;1.08;;;11.30;99.90;;;11.35;100.00;101852.47;5248348;28;20041;-52
2023/09/24 03:53:28;;;;;;;1.25;1.10;;;11.30;99.90;;;11.33;100.00;101852.38;5253724;28;20418;-50
2023/09/24 03:56:04;;;;;;;1.90;1.10;;;11.30;99.90;;;11.30;100.00;101852.25;5235670;28;20044;-51
2023/09/24 03:58:37;;;;;;;2.70;1.70;;;11.20;99.90;;;11.29;100.00;101850.44;5251105;28;20487;-51
2023/09/24 04:01:11;;;;;;;1.77;0.93;;;11.20;99.90;;;11.27;100.00;101859.00;5250093;28;20068;-51
2023/09/24 04:03:43;;;;;;;2.75;1.27;;;11.20;99.90;;;11.23;100.00;101859.69;5252876;28;20455;-53
2023/09/24 04:06:16;;;;;;;2.60;1.83;;;11.20;99.90;;;11.24;100.00;101856.25;5235058;28;20052;-52
2023/09/24 04:08:48;;;;;;;3.65;1.67;;;11.20;99.90;;;11.22;100.00;101861.41;5229071;28;20060;-53
2023/09/24 04:11:22;;;;;;;1.45;1.02;;;11.10;99.90;;;11.21;100.00;101867.44;5240165;28;20045;-52
2023/09/24 04:13:55;;;;;;;2.10;1.23;;;11.10;99.90;;;11.18;100.00;101875.13;5255146;28;20124;-52
2023/09/24 04:16:27;;;;;;;1.67;1.35;;;11.10;99.90;;;11.17;100.00;101870.72;5249510;28;20392;-50
2023/09/24 04:19:00;;;;;;;1.88;1.08;;;11.10;99.90;;;11.16;100.00;101878.50;5231681;28;20053;-53
2023/09/24 04:21:32;;;;;;;1.80;0.93;;;11.10;99.90;;;11.12;100.00;101875.72;5237875;28;20071;-52
2023/09/24 04:24:05;;;;;;;1.33;1.23;;;11.10;99.90;;;11.11;100.00;101880.88;5233573;28;20132;-52
2023/09/24 04:26:39;;;;;;;2.10;1.20;;;11.00;99.90;;;11.11;100.00;101883.47;5237905;28;20052;-53
2023/09/24 04:29:12;;;;;;;3.13;1.10;;;11.10;99.90;;;11.13;100.00;101887.94;5242548;28;20247;-51
2023/09/24 04:31:44;;;;;;;1.42;0.95;;;11.10;99.90;;;11.13;100.00;101893.16;5235893;28;20047;-54
2023/09/24 04:34:19;;;;;;;2.67;1.27;;;11.10;99.90;;;11.16;100.00;101886.31;5251519;28;20052;-53
2023/09/24 04:36:54;;;;;;;2.45;1.10;;;11.10;99.90;;;11.18;100.00;101890.78;5236397;28;20056;-53
2023/09/24 04:39:27;;;;;;;1.10;1.00;;;11.10;99.90;;;11.17;100.00;101899.44;5239061;28;20040;-53
2023/09/24 04:42:00;;;;;;;1.90;1.38;;;11.10;99.90;;;11.16;100.00;101904.59;5253831;28;20044;-51
2023/09/24 04:44:33;;;;;;;2.45;1.20;;;11.10;99.90;;;11.13;100.00;101903.59;5235616;28;20041;-53
2023/09/24 04:47:05;;;;;;;1.67;1.10;;;11.10;99.90;;;11.13;100.00;101898.38;5260370;28;20094;-51
2023/09/24 04:49:38;;;;;;;3.65;0.98;;;11.10;99.90;;;11.12;100.00;101912.25;5242081;28;20044;-52
2023/09/24 04:52:10;;;;;;;2.00;1.27;;;11.10;99.90;;;11.10;100.00;101906.06;5254493;28;20044;-50
2023/09/24 04:54:43;;;;;;;1.67;1.05;;;11.00;99.90;;;11.07;100.00;101910.22;5243270;28;20522;-51
2023/09/24 04:57:17;;;;;;;1.77;1.20;;;11.00;99.90;;;11.02;100.00;101915.22;5231370;28;20048;-52
2023/09/24 04:59:53;;;;;;;1.58;1.48;;;11.00;99.90;;;11.00;100.00;101915.94;5253956;28;20420;-51
2023/09/24 05:02:25;;;;;;;2.17;1.20;;;10.90;99.90;;;10.96;100.00;101917.53;5250125;28;20043;-51
2023/09/24 05:04:57;;;;;;;1.88;1.05;;;10.90;99.90;;;10.91;100.00;101918.09;5250152;28;20068;-53
2023/09/24 05:07:30;;;;;;;1.00;0.90;;;10.90;99.90;;;10.89;100.00;101928.47;5234276;28;20052;-52
2023/09/24 05:10:03;;;;;;;2.20;1.30;;;10.80;99.90;;;10.87;100.00;101924.88;5233321;28;20045;-51
2023/09/24 05:12:37;;;;;;;1.67;1.23;;;10.80;99.90;;;10.83;100.00;101936.88;5237645;28;20087;-52
2023/09/24 05:15:10;;;;;;;1.52;1.00;;;10.80;99.90;;;10.80;100.00;101938.41;5234812;28;20521;-51
2023/09/24 05:17:42;;;;;;;2.05;1.13;;;10.70;99.90;;;10.78;100.00;101942.66;5258656;28;20063;-53
2023/09/24 05:20:15;;;;;;;2.13;0.98;;;10.70;99.90;;;10.75;100.00;101945.09;5234756;28;20041;-53
2023/09/24 05:22:51;;;;;;;1.35;1.02;;;10.70;99.90;;;10.71;100.00;101948.38;5236403;28;20048;-51
2023/09/24 05:25:23;;;;;;;2.03;0.93;;;10.70;99.90;;;10.71;100.00;101948.38;5250963;28;20055;-53
2023/09/24 05:27:57;;;;;;;1.60;1.10;;;10.70;99.90;;;10.68;100.00;101949.09;5250304;28;20056;-53
2023/09/24 05:30:29;;;;;;;1.85;0.90;;;10.60;99.90;;;10.68;100.00;101950.81;5238032;28;20048;-52
2023/09/24 05:33:03;;;;;;;1.25;1.02;;;10.60;99.90;;;10.67;100.00;101960.34;5232065;28;20063;-51
2023/09/24 05:35:35;;;;;;;1.45;1.23;;;10.60;99.90;;;10.66;100.00;101960.28;5253531;28;20041;-52
2023/09/24 05:38:08;;;;;;;1.63;1.10;;;10.60;99.90;;;10.68;100.00;101963.84;5238554;28;20578;-51
2023/09/24 05:40:40;;;;;;;1.58;0.85;;;10.60;99.90;;;10.70;100.00;101962.25;5244650;28;20044;-52
2023/09/24 05:43:14;;;;;;;1.33;0.90;;;10.60;99.90;;;10.71;100.00;101966.63;5237967;28;20048;-51
2023/09/24 05:45:47;;;;;;;1.10;1.00;;;10.70;99.90;;;10.72;100.00;101964.09;5238075;28;20045;-49
2023/09/24 05:48:20;;;;;;;1.55;1.17;;;10.70;99.90;;;10.73;100.00;101970.19;5251550;28;20041;-53
2023/09/24 05:50:53;;;;;;;1.45;1.00;;;10.70;99.90;;;10.76;100.00;101965.16;5256131;28;20131;-51
2023/09/24 05:53:25;;;;;;;1.38;1.27;;;10.70;99.90;;;10.80;100.00;101964.50;5244325;28;20045;-51
2023/09/24 05:55:58;;;;;;;1.50;1.10;;;10.70;99.90;;;10.84;100.00;101971.69;5254307;28;20061;-51
2023/09/24 05:58:32;;;;;;;2.58;1.20;;;10.80;99.90;;;10.87;100.00;101971.81;5231384;28;20049;-51
2023/09/24 06:01:04;;;;;;;2.75;1.20;;;10.80;99.90;;;10.88;100.00;101971.00;5248820;28;20131;-50
2023/09/24 06:03:37;;;;;;;1.27;1.08;;;10.80;99.90;;;10.88;100.00;101965.78;5245352;28;20515;-52
2023/09/24 06:06:10;;;;;;;1.42;0.93;;;10.90;99.90;;;10.91;100.00;101971.19;5250046;28;20051;-51
2023/09/24 06:08:43;;;;;;;1.60;1.08;;;10.90;99.90;;;10.95;100.00;101975.72;5242550;28;20049;-51
2023/09/24 06:11:16;;;;;;;1.55;1.13;;;10.90;99.90;;;11.17;100.00;101976.84;5257125;28;20044;-51
2023/09/24 06:13:49;;;;;;;3.78;1.17;;;11.10;99.90;;;12.19;100.00;101979.28;5240459;28;20064;-52
2023/09/24 06:16:22;;;;;;;1.63;1.00;;;11.60;99.90;;;13.71;100.00;101990.41;5233677;28;20044;-52
2023/09/24 06:18:54;;;;;;;1.88;1.40;;;12.70;99.90;;;15.19;100.00;101992.53;5240917;28;20523;-52
2023/09/24 06:21:27;;;;;;;1.23;1.13;;;14.00;99.90;;;16.45;100.00;102003.69;5242816;28;20503;-52
2023/09/24 06:23:59;;;;;;;3.65;1.50;;;15.20;99.90;;;17.49;100.00;102006.63;5260180;28;20448;-51
2023/09/24 06:26:31;;;;;;;2.38;0.85;;;16.20;99.90;;;18.34;97.29;102013.09;5251676;28;20040;-52
2023/09/24 06:29:05;;;;;;;1.65;1.02;;;17.10;99.90;;;19.01;93.18;102029.50;5229333;28;20049;-50
2023/09/24 06:31:38;;;;;;;1.92;1.30;;;17.90;99.90;;;19.48;90.14;102027.72;5232579;28;20517;-50
2023/09/24 06:34:10;;;;;;;2.50;1.25;;;18.50;99.90;;;19.90;88.18;102036.41;5229660;28;20132;-52
2023/09/24 06:36:42;;;;;;;1.92;1.40;;;18.90;99.70;;;20.25;86.32;102044.88;5231828;28;20051;-51
2023/09/24 06:39:15;;;;;;;1.80;1.27;;;19.30;98.70;;;20.53;84.95;102040.91;5224101;28;20530;-51
2023/09/24 06:41:47;;;;;;;1.83;1.05;;;19.60;98.00;;;20.69;83.85;102032.28;5244973;28;20041;-52
2023/09/24 06:44:25;;;;;;;2.17;1.00;;;19.80;97.30;;;20.81;83.22;102037.75;5227135;28;20049;-52
2023/09/24 06:46:57;;;;;;;2.05;1.13;;;20.00;96.80;;;20.80;82.80;102035.97;5244730;28;20079;-52
2023/09/24 06:49:30;;;;;;;1.50;1.00;;;20.10;96.30;;;20.73;82.81;102044.69;5230743;28;20048;-51
2023/09/24 06:52:02;;;;;;;2.50;0.90;;;20.10;96.00;;;20.67;83.49;102042.00;5225354;28;20057;-51
2023/09/24 06:54:35;;;;;;;1.38;0.90;;;20.10;96.10;;;20.49;83.85;102045.28;5229656;28;20053;-51
2023/09/24 06:57:07;;;;;;;2.13;1.35;;;20.00;96.10;;;20.29;84.49;102047.63;5242676;28;20710;-52
2023/09/24 06:59:41;;;;;;;3.50;1.13;;;19.80;96.10;;;20.06;85.86;102038.41;5228651;28;20048;-54
2023/09/24 07:02:15;;;;;;;3.60;0.82;;;19.70;96.50;;;19.98;86.67;102050.66;5225378;28;20040;-53
2023/09/24 07:04:48;;;;;;;1.77;0.82;;;19.60;96.70;;;19.94;86.57;102043.53;5230879;28;20056;-52
2023/09/24 07:07:20;;;;;;;1.00;0.82;;;19.60;96.60;;;19.96;86.77;102049.75;5245394;28;20040;-53
2023/09/24 07:09:53;;;;;;;1.73;0.82;;;19.60;96.60;;;19.94;86.45;102043.53;5227707;28;20048;-53
2023/09/24 07:12:25;;;;;;;2.55;0.82;;;19.60;96.50;;;19.93;87.07;102047.03;5243854;28;20508;-53
2023/09/24 07:14:59;;;;;;;1.17;0.93;;;19.60;96.70;;;20.01;86.05;102050.69;5245620;28;20060;-53
2023/09/24 07:17:31;;;;;;;1.45;1.00;;;19.60;96.40;;;20.03;85.46;102055.16;5227417;28;20064;-55
2023/09/24 07:20:05;;;;;;;2.35;1.70;;;19.70;96.00;;;20.08;85.23;102049.03;5244422;28;20454;-53
2023/09/24 07:22:37;;;;;;;3.53;1.38;;;19.60;95.90;;;20.04;85.03;102051.63;5240534;28;20040;-54
2023/09/24 07:25:11;;;;;;;3.63;1.20;;;19.60;95.80;;;20.05;85.10;102047.22;5223361;28;20419;-53
2023/09/24 07:27:43;;;;;;;1.38;0.85;;;19.60;95.70;;;20.17;85.11;102054.47;5246448;28;20121;-52
2023/09/24 07:30:17;;;;;;;2.80;1.13;;;19.70;95.80;;;20.27;84.32;102065.22;5236578;28;20044;-53
2023/09/24 07:32:50;;;;;;;1.85;1.00;;;19.70;95.50;;;20.24;84.65;102062.53;5225388;28;20042;-54
2023/09/24 07:35:23;;;;;;;2.13;1.02;;;19.80;95.90;;;20.33;84.74;102070.59;5238485;28;20055;-53
2023/09/24 07:37:55;;;;;;;1.48;1.20;;;19.80;95.60;;;20.39;84.17;102068.91;5226485;28;20056;-56
2023/09/24 07:40:29;;;;;;;2.08;1.40;;;19.90;95.40;;;20.45;84.45;102071.69;5251680;28;20131;-54
2023/09/24 07:43:02;;;;;;;2.33;1.30;;;19.90;95.40;;;20.47;84.27;102067.28;5243601;28;20396;-54
2023/09/24 07:45:36;;;;;;;2.75;1.25;;;19.90;95.30;;;20.54;84.18;102070.09;5233140;28;20380;-53
2023/09/24 07:48:13;;;;;;;4.25;1.00;;;20.00;95.30;;;20.63;84.19;102076.38;5244464;28;20049;-53
2023/09/24 07:50:53;;;;;;;1.83;1.38;;;20.00;95.40;;;20.72;83.84;102074.72;5226952;28;20076;-54
2023/09/24 07:53:25;;;;;;;2.70;1.20;;;20.00;95.20;;;20.76;83.75;102073.91;5241961;28;20048;-52
2023/09/24 07:56:02;;;;;;;3.88;1.27;;;20.00;95.30;;;20.83;83.58;102073.09;5231269;28;20546;-53
2023/09/24 07:58:35;;;;;;;1.83;1.20;;;20.00;95.30;;;21.00;83.31;102078.63;5219187;28;20048;-54
2023/09/24 08:01:12;;;;;;;2.80;1.33;;;20.10;95.40;;;21.20;82.92;102077.97;5240385;28;20252;-54
2023/09/24 08:03:45;;;;;;;3.00;1.20;;;20.20;95.30;;;21.44;82.07;102074.72;5242084;28;20471;-55
2023/09/24 08:06:18;;;;;;;2.20;1.13;;;20.30;95.20;;;21.75;81.45;102076.78;5238824;28;20067;-53
2023/09/24 08:08:50;;;;;;;3.38;1.38;;;20.50;95.00;;;21.95;80.60;102067.22;5227083;28;20044;-56
2023/09/24 08:11:23;;;;;;;2.15;1.08;;;20.60;94.70;;;22.43;79.33;102070.25;5244616;28;20044;-54
2023/09/24 08:13:56;;;;;;;1.33;0.93;;;20.90;94.50;;;22.84;77.61;102067.81;5227987;28;20534;-53
2023/09/24 08:16:29;;;;;;;1.08;0.70;;;21.10;94.00;;;23.30;76.72;102068.00;5242314;28;20480;-52
2023/09/24 08:19:02;;;;;;;2.15;1.10;;;21.40;93.80;;;23.71;75.17;102065.44;5229744;28;20056;-54
2023/09/24 08:21:34;;;;;;;2.03;0.85;;;21.60;93.40;;;24.14;74.36;102065.44;5225919;28;20111;-54
2023/09/24 08:24:08;;;;;;;0.90;0.63;;;21.90;93.20;;;24.60;72.66;102058.25;5247329;28;20109;-56
2023/09/24 08:26:40;;;;;;;1.38;0.63;;;22.30;92.60;;;25.12;70.96;102065.19;5223659;28;20045;-54
2023/09/24 08:29:13;;;;;;;2.08;0.73;;;22.70;91.80;;;25.39;69.91;102073.00;5239251;28;20056;-52
2023/09/24 08:31:46;;;;;;;1.80;0.82;;;23.00;91.00;;;25.99;68.55;102077.91;5224606;28;20553;-56
2023/09/24 08:34:19;;;;;;;1.42;0.60;;;23.60;90.40;;;26.64;66.64;102068.38;5241331;28;20554;-53
2023/09/24 08:36:51;;;;;;;1.92;0.90;;;24.10;89.10;;;27.24;65.49;102075.66;5241743;28;20047;-57
2023/09/24 08:39:24;;;;;;;2.63;0.82;;;24.70;87.50;;;27.65;64.42;102077.72;5222696;28;20142;-54
2023/09/24 08:41:56;;;;;;;1.75;0.73;;;25.20;85.40;;;27.76;63.55;102075.78;5214094;28;20609;-55
2023/09/24 08:44:30;;;;;;;1.45;0.80;;;25.50;83.50;;;27.74;63.44;102074.03;5218306;28;20048;-54
2023/09/24 08:47:05;;;;;;;;;;;25.70;82.30;;;27.33;63.71;102063.94;5217648;28;20060;-56
2023/09/24 08:49:38;;;;;;;1.00;0.73;;;25.50;81.00;;;26.98;64.01;102058.13;5225110;28;19977;-55
2023/09/24 08:52:12;;;;;;;1.55;1.15;;;25.40;80.30;;;26.64;64.59;102057.66;5227660;28;20036;-54
2023/09/24 08:54:44;;;;;;;;;;;25.30;80.20;;;26.33;65.29;102072.25;5231247;28;20592;-54
2023/09/24 08:57:16;;;;;;;1.75;0.90;;;25.20;80.10;;;25.84;65.92;102062.91;5238003;28;19931;-55
2023/09/24 08:59:49;;;;;;;2.65;0.82;;;24.90;79.70;;;25.28;67.21;102061.50;5226182;28;20499;-52
2023/09/24 09:02:23;;;;;;;1.38;0.90;;;24.50;80.60;;;24.75;68.96;102062.63;5225455;28;20056;-54
2023/09/24 09:04:56;;;;;;;2.22;0.73;;;24.10;81.80;;;24.35;70.74;102060.09;5229263;28;20052;-55
2023/09/24 09:07:28;;;;;;;2.85;0.90;;;23.70;83.10;;;24.08;72.24;102055.66;5241384;28;20040;-54
2023/09/24 09:10:03;;;;;;;2.15;1.00;;;23.50;84.30;;;23.67;72.04;102062.75;5226790;28;20052;-55
2023/09/24 09:12:35;;;;;;;1.58;0.98;;;23.20;84.10;;;23.27;74.13;102054.69;5234444;28;20048;-54
2023/09/24 09:15:17;;;;;;;1.40;0.90;;;22.90;85.60;;;23.21;74.97;102052.00;5246494;28;20060;-55
2023/09/24 09:17:51;;;;;;;3.88;1.13;;;22.70;86.80;;;23.05;75.74;102047.53;5227952;28;20462;-56
2023/09/24 09:20:40;;;;;;;0.80;0.73;;;22.60;87.50;;;23.00;76.72;102043.09;5228448;28;20048;-55
2023/09/24 09:23:16;;;;;;;0.95;0.65;;;22.50;88.50;;;23.11;76.33;102044.91;5221856;28;20344;-55
2023/09/24 09:25:52;;;;;;;1.58;0.88;;;22.50;88.60;;;23.14;74.95;102044.91;5243299;28;20503;-54
2023/09/24 09:28:28;;;;;;;2.80;1.02;;;22.60;87.40;;;22.97;75.98;102040.44;5230097;28;20108;-54
2023/09/24 09:31:03;;;;;;;1.35;0.70;;;22.50;88.10;;;23.01;76.44;102030.66;5228956;28;20049;-55
2023/09/24 09:33:39;;;;;;;1.77;0.90;;;22.40;88.50;;;23.06;75.92;102025.38;5250240;28;20045;-55
2023/09/24 09:36:22;;;;;;;3.42;0.85;;;22.50;88.20;;;23.10;75.76;102027.19;5238017;28;20060;-54
2023/09/24 09:38:57;;;;;;;1.60;0.98;;;22.50;88.20;;;23.21;75.75;102025.41;5226293;28;20041;-53
2023/09/24 09:41:32;;;;;;;2.17;1.00;;;22.60;88.30;;;23.20;75.31;102029.84;5228860;28;20095;-53
2023/09/24 09:44:07;;;;;;;1.60;0.93;;;22.60;87.90;;;23.27;76.18;102025.41;5239414;28;20060;-55
2023/09/24 09:46:44;;;;;;;1.55;0.95;;;22.60;88.70;;;23.36;76.16;102025.44;5238798;28;20044;-54
2023/09/24 09:49:22;;;;;;;1.38;0.80;;;22.70;88.90;;;23.27;75.71;102014.78;5229914;28;20052;-54
2023/09/24 09:52:00;;;;;;;2.38;0.57;;;22.70;88.30;;;23.32;75.59;102014.78;5229360;28;20142;-54
2023/09/24 09:54:37;;;;;;;2.38;1.00;;;22.70;88.20;;;23.36;75.02;102008.59;5230943;28;20044;-54
2023/09/24 09:57:13;;;;;;;2.65;0.80;;;22.70;87.70;;;23.38;75.31;102013.03;5241824;28;20051;-53
2023/09/24 09:59:47;;;;;;;2.35;0.77;;;22.70;87.90;;;23.33;74.71;102009.47;5226874;28;20078;-54
2023/09/24 10:02:20;;;;;;;1.63;0.77;;;22.70;87.20;;;23.46;75.81;102005.94;5240886;28;20530;-54
2023/09/24 10:04:55;;;;;;;2.03;0.75;;;22.80;88.20;;;23.60;75.89;101997.94;5245251;28;20056;-57
2023/09/24 10:07:31;;;;;;;0.70;0.52;;;22.90;88.70;;;23.74;75.73;102001.56;5247335;28;20039;-53
2023/09/24 10:10:43;;;;;;;2.40;0.90;;;23.00;88.40;;;23.83;74.44;101995.31;5198567;28;20213;-57
2023/09/24 10:13:50;;;;;;;2.00;0.82;;;23.10;87.10;;;23.65;70.64;101992.66;5224959;28;20041;-53
2023/09/24 10:16:38;;;;;;;4.13;0.95;;;23.00;83.50;;;23.33;69.43;101990.84;5244145;28;20052;-53
2023/09/24 10:19:12;;;;;;;2.15;0.60;;;22.80;81.60;;;23.31;70.11;101989.97;5226020;28;20057;-53
2023/09/24 10:21:47;;;;;;;2.78;0.80;;;22.80;82.30;;;23.37;68.26;101983.75;5240137;28;20538;-54
2023/09/24 10:24:44;;;;;;;0.95;0.52;;;22.80;80.40;;;23.35;67.94;101993.53;5240791;28;20040;-54
2023/09/24 10:27:27;;;;;;;1.88;0.68;;;22.80;79.60;;;23.28;67.52;101984.66;5223576;28;20059;-53
2023/09/24 10:30:08;;;;;;;2.97;0.75;;;22.80;79.30;;;23.24;67.46;101989.06;5242354;28;20045;-54
2023/09/24 10:32:49;;;;;;;2.20;0.88;;;22.70;79.20;;;23.36;68.74;101977.56;5237640;28;20345;-54
2023/09/24 10:35:22;;;;;;;2.92;0.60;;;22.80;80.30;;;23.60;69.14;101986.41;5223740;28;20067;-55
2023/09/24 10:38:04;;;;;;;2.33;0.68;;;22.90;81.20;;;23.79;68.90;101993.53;5242772;28;20056;-55
2023/09/24 10:41:03;;;;;;;1.92;0.80;;;23.10;80.80;;;23.98;68.55;101973.97;5225442;28;20472;-54